Lulu Pass Weather Station

This weather station provides temperature, relative humidity (RH), wind speed, gust or max wind speed, and wind direction at 10014ft near Lulu Pass at the head of Fisher Creek. This data can be used with temperature and precipitation data from the Fisher Creek SNOTEL site.

This weather station was purchased by the Friends of the Avalanche Center.

If the data has not been updated recently you can view it directly on datagarrison.com

Elevation
10014ft
Jump to table bottom
Date Time Temperature
deg F
RH, % Wind Speed Wind Gust Wind Direction
04/10/21 12:00 29.7 49 18 39 SW - 240
04/10/21 11:00 28.9 49 23 54 SW - 226
04/10/21 10:00 25.8 50 17 36 SW - 215
04/10/21 09:00 22.9 52 15 30 SW - 208
04/10/21 08:00 20.9 59 19 39 SW - 208
04/10/21 07:00 19.5 57 14 29 SW - 204
04/10/21 06:00 18.1 57 5 25 SW - 220
04/10/21 05:00 17.4 58 5 16 SW - 247
04/10/21 04:00 17.6 61 10 23 SW - 236
04/10/21 03:00 16.8 65 11 24 SW - 240
04/10/21 02:00 18.2 63 12 23 SW - 241
04/10/21 01:00 17.1 65 7 20 W - 261
04/10/21 00:00 16.5 71 7 18 W - 257
04/09/21 23:00 16.3 73 8 18 NW - 316
04/09/21 22:00 16.4 74 6 14 NW - 329
04/09/21 21:00 16.7 73 8 14 NW - 317
04/09/21 20:00 17.5 72 9 15 NW - 319
04/09/21 19:00 19.5 67 9 16 NW - 303
04/09/21 18:00 23.1 63 11 21 W - 292
04/09/21 17:00 23.4 64 10 19 W - 289
04/09/21 16:00 22.7 66 13 22 NW - 312
04/09/21 15:00 21.1 63 14 22 NW - 309
04/09/21 14:00 20.4 64 10 17 NW - 302
04/09/21 13:00 17.2 69 12 21 NW - 305
04/09/21 12:00 16.3 90 10 21 NW - 295
04/09/21 11:00 13.9 91 11 18 NW - 317
04/09/21 10:00 12.1 92 6 17 NW - 299
04/09/21 09:00 12.5 91 5 9 NW - 313
04/09/21 08:00 8.8 91 2 8 NW - 313
04/09/21 07:00 5.5 90 2 3 W - 291
04/09/21 06:00 4.7 90 4 7 NW - 314
04/09/21 05:00 5.2 90 9 13 NW - 324
04/09/21 04:00 5.7 90 8 13 NW - 320
04/09/21 03:00 6.6 91 14 17 NW - 336
04/09/21 02:00 6.5 90 15 18 NW - 330
04/09/21 01:00 7.0 91 14 20 NW - 334
04/09/21 00:00 7.5 91 19 24 NW - 330
04/08/21 23:00 8.0 91 23 30 N - 344
04/08/21 22:00 8.6 91 24 39 N - 344
04/08/21 21:00 10.4 92 24 33 N - 341
04/08/21 20:00 10.7 91 28 48 N - 350
04/08/21 19:00 10.8 91 27 46 N - 344
04/08/21 18:00 13.6 92 26 34 N - 344
04/08/21 17:00 13.2 92 24 40 N - 343
04/08/21 16:00 18.7 93 15 32 W - 279
04/08/21 15:00 22.6 77 21 39 SW - 211
04/08/21 14:00 24.5 63 24 41 S - 202
04/08/21 13:00 26.2 60 19 39 SW - 209
04/08/21 12:00 27.6 57 17 34 SW - 208
04/08/21 11:00 28.4 63 20 39 SW - 212